createdAt,value
2023-02-09T00:01:20.650Z,16.50
2023-02-09T00:03:47.447Z,17.50
2023-02-09T00:06:16.863Z,16.03
2023-02-09T00:08:43.567Z,16.00
2023-02-09T00:11:18.512Z,15.73
2023-02-09T00:13:46.333Z,17.63
2023-02-09T00:16:13.097Z,17.70
2023-02-09T00:18:40.010Z,16.33
2023-02-09T00:21:11.421Z,17.87
2023-02-09T00:23:40.645Z,16.30
2023-02-09T00:26:10.814Z,16.97
2023-02-09T00:28:38.707Z,17.97
2023-02-09T00:31:11.548Z,17.57
2023-02-09T00:33:40.448Z,17.83
2023-02-09T00:36:11.626Z,17.30
2023-02-09T00:38:39.418Z,17.33
2023-02-09T00:41:06.730Z,17.33
2023-02-09T00:43:34.076Z,16.87
2023-02-09T00:46:00.956Z,17.60
2023-02-09T00:48:27.950Z,17.60
2023-02-09T00:50:56.254Z,16.70
2023-02-09T00:53:23.736Z,17.07
2023-02-09T00:55:50.919Z,17.27
2023-02-09T00:58:17.816Z,20.93
2023-02-09T01:00:44.952Z,26.93
2023-02-09T01:03:12.355Z,37.80
2023-02-09T01:05:42.772Z,28.57
2023-02-09T01:08:10.969Z,20.67
2023-02-09T01:10:38.430Z,19.57
2023-02-09T01:13:05.489Z,18.50
2023-02-09T01:15:32.387Z,16.83
2023-02-09T01:17:59.632Z,17.17
2023-02-09T01:20:26.747Z,16.20
2023-02-09T01:22:53.498Z,16.40
2023-02-09T01:25:20.191Z,16.43
2023-02-09T01:27:46.989Z,16.27
2023-02-09T01:30:15.049Z,15.77
2023-02-09T01:32:41.892Z,16.73
2023-02-09T01:35:08.716Z,16.57
2023-02-09T01:37:37.558Z,15.10
2023-02-09T01:40:05.725Z,15.33
2023-02-09T01:42:32.861Z,15.33
2023-02-09T01:45:25.563Z,14.63
2023-02-09T01:48:10.929Z,15.07
2023-02-09T01:50:41.156Z,14.80
2023-02-09T01:53:08.550Z,14.67
2023-02-09T01:55:41.450Z,14.07
2023-02-09T01:58:13.854Z,15.00
2023-02-09T02:00:40.697Z,13.90
2023-02-09T02:03:12.449Z,14.03
2023-02-09T02:05:42.802Z,12.67
2023-02-09T02:08:18.375Z,12.57
2023-02-09T02:10:45.600Z,12.37
2023-02-09T02:13:12.570Z,13.20
2023-02-09T02:16:05.628Z,12.20
2023-02-09T02:18:52.548Z,12.73
2023-02-09T02:21:44.739Z,12.40
2023-02-09T02:24:40.295Z,12.47
2023-02-09T02:27:38.241Z,11.90
2023-02-09T02:30:28.909Z,11.90
2023-02-09T02:33:00.216Z,11.70
2023-02-09T02:35:36.028Z,12.10
2023-02-09T02:38:12.939Z,12.37
2023-02-09T02:40:54.930Z,12.07
2023-02-09T02:43:49.461Z,11.33
2023-02-09T02:46:39.647Z,10.33
2023-02-09T02:49:26.538Z,10.30
2023-02-09T02:51:58.382Z,10.50
2023-02-09T02:54:30.559Z,10.13
2023-02-09T02:57:02.857Z,11.60
2023-02-09T02:59:33.463Z,11.50
2023-02-09T03:02:09.878Z,11.87
2023-02-09T03:04:38.655Z,11.33
2023-02-09T03:07:06.915Z,10.67
2023-02-09T03:09:34.064Z,11.13
2023-02-09T03:12:17.511Z,10.90
2023-02-09T03:14:50.789Z,10.90
2023-02-09T03:17:48.390Z,10.27
2023-02-09T03:20:36.454Z,10.93
2023-02-09T03:23:07.607Z,11.60
2023-02-09T03:25:56.305Z,10.50
2023-02-09T03:28:28.902Z,10.97
2023-02-09T03:30:57.740Z,10.37
2023-02-09T03:33:33.285Z,10.70
2023-02-09T03:36:02.416Z,11.27
2023-02-09T03:38:29.034Z,10.93
2023-02-09T03:40:55.777Z,10.43
2023-02-09T03:43:22.373Z,10.37
2023-02-09T03:45:49.063Z,11.03
2023-02-09T03:48:15.723Z,10.90
2023-02-09T03:50:42.437Z,10.77
2023-02-09T03:53:08.998Z,10.57
2023-02-09T03:55:36.156Z,11.27
2023-02-09T03:58:02.820Z,10.73
2023-02-09T04:00:29.566Z,10.90
2023-02-09T04:02:56.302Z,11.70
2023-02-09T04:05:23.070Z,11.33
2023-02-09T04:07:49.845Z,10.70
2023-02-09T04:10:16.689Z,10.27
2023-02-09T04:12:43.288Z,10.73
2023-02-09T04:15:10.698Z,10.53
2023-02-09T04:17:37.394Z,10.53
2023-02-09T04:20:04.360Z,10.30
2023-02-09T04:22:30.973Z,11.07
2023-02-09T04:24:58.176Z,10.83
2023-02-09T04:27:24.817Z,10.80
2023-02-09T04:29:51.529Z,10.50
2023-02-09T04:32:18.267Z,10.30
2023-02-09T04:34:44.917Z,10.67
2023-02-09T04:37:11.550Z,10.53
2023-02-09T04:39:38.263Z,10.50
2023-02-09T04:42:04.960Z,10.00
2023-02-09T04:44:31.642Z,10.43
2023-02-09T04:46:58.316Z,10.33
2023-02-09T04:49:25.028Z,9.67
2023-02-09T04:51:51.625Z,10.30
2023-02-09T04:54:18.361Z,10.43
2023-02-09T04:56:46.117Z,10.93
2023-02-09T04:59:12.903Z,10.70
2023-02-09T05:01:39.887Z,10.67
2023-02-09T05:04:06.588Z,10.33
2023-02-09T05:06:33.464Z,9.80
2023-02-09T05:09:00.223Z,10.47
2023-02-09T05:11:26.839Z,10.10
2023-02-09T05:13:53.744Z,10.40
2023-02-09T05:16:20.891Z,10.53
2023-02-09T05:18:47.714Z,11.07
2023-02-09T05:21:14.460Z,10.17
2023-02-09T05:23:42.440Z,9.43
2023-02-09T05:26:09.420Z,9.77
2023-02-09T05:28:36.467Z,9.33
2023-02-09T05:31:03.818Z,9.63
2023-02-09T05:33:30.826Z,9.60
2023-02-09T05:36:01.994Z,8.77
2023-02-09T05:38:31.081Z,9.07
2023-02-09T05:40:57.714Z,9.13
2023-02-09T05:43:24.435Z,10.17
2023-02-09T05:45:52.206Z,11.97
2023-02-09T05:48:18.852Z,24.67
2023-02-09T05:50:45.843Z,24.80
2023-02-09T05:53:15.625Z,18.93
2023-02-09T05:55:42.761Z,16.17
2023-02-09T05:58:10.004Z,14.47
2023-02-09T06:00:36.630Z,18.40
2023-02-09T06:03:03.521Z,13.57
2023-02-09T06:05:30.278Z,14.03
2023-02-09T06:07:57.073Z,11.33
2023-02-09T06:10:23.717Z,10.30
2023-02-09T06:12:50.507Z,10.90
2023-02-09T06:15:17.286Z,10.90
2023-02-09T06:17:44.429Z,10.80
2023-02-09T06:20:11.842Z,9.70
2023-02-09T06:22:38.650Z,9.00
2023-02-09T06:25:05.946Z,10.17
2023-02-09T06:27:32.641Z,8.83
2023-02-09T06:29:59.832Z,8.43
2023-02-09T06:32:28.522Z,8.43
2023-02-09T06:34:55.585Z,8.30
2023-02-09T06:37:22.899Z,8.83
2023-02-09T06:39:51.098Z,7.57
2023-02-09T06:42:17.819Z,8.40
2023-02-09T06:44:44.596Z,7.93
2023-02-09T06:47:11.382Z,7.77
2023-02-09T06:49:37.980Z,7.57
2023-02-09T06:52:05.389Z,8.20
2023-02-09T06:54:31.985Z,8.27
2023-02-09T06:56:58.686Z,8.30
2023-02-09T06:59:25.430Z,8.20
2023-02-09T07:01:55.022Z,7.77
2023-02-09T07:04:22.285Z,8.03
2023-02-09T07:06:49.004Z,8.97
2023-02-09T07:09:15.601Z,8.80
2023-02-09T07:11:42.304Z,9.43
2023-02-09T07:14:08.952Z,9.20
2023-02-09T07:16:35.690Z,9.17
2023-02-09T07:19:02.323Z,10.00
2023-02-09T07:21:29.196Z,12.10
2023-02-09T07:23:55.829Z,10.93
2023-02-09T07:26:22.476Z,10.57
2023-02-09T07:28:49.394Z,9.40
2023-02-09T07:31:16.671Z,8.93
2023-02-09T07:33:43.553Z,8.43
2023-02-09T07:36:12.772Z,8.77
2023-02-09T07:38:40.026Z,9.47
2023-02-09T07:41:08.184Z,9.27
2023-02-09T07:43:35.084Z,9.80
2023-02-09T07:46:07.220Z,8.70
2023-02-09T07:48:35.102Z,9.13
2023-02-09T07:51:02.518Z,8.63
2023-02-09T07:53:29.677Z,8.33
2023-02-09T07:55:57.054Z,8.43
2023-02-09T07:58:24.237Z,8.20
2023-02-09T08:00:51.625Z,6.50
2023-02-09T08:03:23.907Z,7.20
2023-02-09T08:05:53.573Z,6.80
2023-02-09T08:08:20.250Z,7.27
2023-02-09T08:10:47.277Z,7.07
2023-02-09T08:13:14.382Z,6.97
2023-02-09T08:15:52.654Z,7.03
2023-02-09T08:18:25.317Z,6.70
2023-02-09T08:20:53.257Z,6.23
2023-02-09T08:23:25.046Z,6.07
2023-02-09T08:25:52.111Z,6.50
2023-02-09T08:28:19.899Z,6.63
2023-02-09T08:30:49.117Z,6.30
2023-02-09T08:33:16.760Z,6.73
2023-02-09T08:35:44.198Z,6.57
2023-02-09T08:38:11.037Z,6.47
2023-02-09T08:40:39.113Z,6.30
2023-02-09T08:43:05.749Z,6.23
2023-02-09T08:45:32.802Z,5.53
2023-02-09T08:47:59.519Z,6.20
2023-02-09T08:50:26.246Z,5.97
2023-02-09T08:52:52.821Z,6.23
2023-02-09T08:55:19.907Z,6.00
2023-02-09T08:57:46.633Z,5.77
2023-02-09T09:00:14.052Z,5.13
2023-02-09T09:02:40.694Z,5.40
2023-02-09T09:05:07.712Z,5.30
2023-02-09T09:07:34.423Z,5.33
2023-02-09T09:10:01.207Z,5.50
2023-02-09T09:12:30.127Z,5.13
2023-02-09T09:14:57.067Z,5.10
2023-02-09T09:17:23.684Z,5.93
2023-02-09T09:19:50.367Z,5.93
2023-02-09T09:22:17.054Z,5.57
2023-02-09T09:24:43.872Z,5.87
2023-02-09T09:27:10.913Z,5.50
2023-02-09T09:29:37.896Z,5.70
2023-02-09T09:32:04.774Z,5.40
2023-02-09T09:34:31.459Z,6.17
2023-02-09T09:36:58.206Z,5.80
2023-02-09T09:39:26.145Z,5.57
2023-02-09T09:41:57.013Z,5.30
2023-02-09T09:44:35.085Z,5.47
2023-02-09T09:47:10.732Z,5.30
2023-02-09T09:49:37.927Z,5.23
2023-02-09T09:52:20.359Z,5.80
2023-02-09T09:54:47.622Z,5.50
2023-02-09T09:57:28.055Z,5.40
2023-02-09T09:59:56.462Z,5.80
2023-02-09T10:02:33.664Z,5.47
2023-02-09T10:05:20.803Z,5.57
2023-02-09T10:08:01.449Z,5.47
2023-02-09T10:10:41.203Z,5.47
2023-02-09T10:13:17.320Z,5.57
2023-02-09T10:15:48.362Z,5.67
2023-02-09T10:18:16.868Z,5.83
2023-02-09T10:20:51.144Z,5.60
2023-02-09T10:23:44.265Z,5.23
2023-02-09T10:26:14.009Z,5.40
2023-02-09T10:28:55.264Z,5.97
2023-02-09T10:31:25.055Z,5.73
2023-02-09T10:34:04.252Z,5.73
2023-02-09T10:36:35.664Z,5.73
2023-02-09T10:39:04.433Z,5.57
2023-02-09T10:41:34.106Z,5.70
2023-02-09T10:44:05.635Z,5.50
2023-02-09T10:46:33.526Z,5.07
2023-02-09T10:49:00.427Z,5.53
2023-02-09T10:51:27.614Z,5.37
2023-02-09T10:54:19.059Z,5.70
2023-02-09T10:56:48.595Z,5.90
2023-02-09T10:59:24.334Z,5.90
2023-02-09T11:01:55.792Z,6.07
2023-02-09T11:04:26.099Z,5.80
2023-02-09T11:07:04.132Z,5.83
2023-02-09T11:09:36.595Z,5.60
2023-02-09T11:12:03.668Z,5.30
2023-02-09T11:14:30.547Z,5.40
2023-02-09T11:17:13.357Z,5.80
2023-02-09T11:20:01.892Z,6.03
2023-02-09T11:22:50.663Z,5.67
2023-02-09T11:25:25.069Z,6.10
2023-02-09T11:27:54.892Z,5.60
2023-02-09T11:30:28.377Z,5.67
2023-02-09T11:33:19.280Z,5.67
2023-02-09T11:36:13.680Z,5.77
2023-02-09T11:38:49.215Z,5.80
2023-02-09T11:41:23.934Z,5.77
2023-02-09T11:43:53.329Z,5.60
2023-02-09T11:46:23.107Z,6.07
2023-02-09T11:49:07.123Z,5.87
2023-02-09T11:51:39.348Z,6.00
2023-02-09T11:54:22.910Z,6.20
2023-02-09T11:56:52.730Z,5.80
2023-02-09T11:59:29.670Z,5.77
2023-02-09T12:02:26.726Z,6.30
2023-02-09T12:04:56.321Z,6.57
2023-02-09T12:07:30.252Z,5.70
2023-02-09T12:10:17.015Z,6.57
2023-02-09T12:13:22.077Z,6.50
2023-02-09T12:16:00.841Z,6.47
2023-02-09T12:18:30.620Z,6.07
2023-02-09T12:21:01.497Z,6.70
2023-02-09T12:23:37.226Z,6.67
2023-02-09T12:26:16.190Z,6.57
2023-02-09T12:29:02.610Z,5.90
2023-02-09T12:31:31.599Z,6.30
2023-02-09T12:33:58.197Z,6.23
2023-02-09T12:36:34.616Z,6.60
2023-02-09T12:39:24.141Z,6.23
2023-02-09T12:41:51.008Z,6.30
2023-02-09T12:44:17.784Z,6.30
2023-02-09T12:46:44.558Z,6.37
2023-02-09T12:49:11.294Z,6.27
2023-02-09T12:51:44.100Z,6.33
2023-02-09T12:54:31.872Z,6.73
2023-02-09T12:57:17.060Z,6.03
2023-02-09T12:59:50.388Z,6.57
2023-02-09T13:02:38.738Z,5.87
2023-02-09T13:05:19.398Z,6.50
2023-02-09T13:08:11.130Z,6.13
2023-02-09T13:10:59.402Z,6.13
2023-02-09T13:13:25.996Z,6.80
2023-02-09T13:16:02.622Z,7.07
2023-02-09T13:18:49.658Z,7.47
2023-02-09T13:21:38.152Z,7.77
2023-02-09T13:24:19.047Z,7.07
2023-02-09T13:26:57.384Z,7.07
2023-02-09T13:29:27.053Z,7.13
2023-02-09T13:32:06.054Z,7.00
2023-02-09T13:34:45.340Z,7.67
2023-02-09T13:37:21.112Z,7.43
2023-02-09T13:39:57.683Z,7.23
2023-02-09T13:42:27.079Z,7.20
2023-02-09T13:44:56.044Z,7.47
2023-02-09T13:47:23.464Z,7.27
2023-02-09T13:50:23.518Z,6.80
2023-02-09T13:52:51.640Z,7.50
2023-02-09T13:55:26.949Z,6.90
2023-02-09T13:58:04.068Z,6.90
2023-02-09T14:00:42.784Z,6.97
2023-02-09T14:03:17.968Z,6.50
2023-02-09T14:06:10.767Z,6.23
2023-02-09T14:08:40.786Z,6.70
2023-02-09T14:11:42.331Z,6.87
2023-02-09T14:14:18.745Z,6.60
2023-02-09T14:16:53.333Z,6.33
2023-02-09T14:19:31.749Z,7.00
2023-02-09T14:21:59.393Z,6.50
2023-02-09T14:24:27.789Z,6.47
2023-02-09T14:27:00.093Z,6.40
2023-02-09T14:29:33.286Z,6.43
2023-02-09T14:32:33.340Z,6.60
2023-02-09T14:35:28.025Z,7.17
2023-02-09T14:37:58.352Z,7.00
2023-02-09T14:40:33.389Z,6.67
2023-02-09T14:43:02.953Z,7.17
2023-02-09T14:45:38.739Z,7.03
2023-02-09T14:48:27.032Z,6.97
2023-02-09T14:50:57.629Z,6.87
2023-02-09T14:53:28.074Z,6.80
2023-02-09T14:55:55.842Z,6.87
2023-02-09T14:58:25.234Z,7.37
2023-02-09T15:00:53.723Z,6.67
2023-02-09T15:03:20.478Z,7.20
2023-02-09T15:05:49.779Z,6.93
2023-02-09T15:08:20.685Z,7.40
2023-02-09T15:10:55.701Z,7.17
2023-02-09T15:13:22.578Z,7.43
2023-02-09T15:15:49.574Z,7.57
2023-02-09T15:18:25.168Z,7.27
2023-02-09T15:20:53.236Z,8.20
2023-02-09T15:23:20.568Z,7.07
2023-02-09T15:25:48.240Z,6.47
2023-02-09T15:28:25.357Z,6.87
2023-02-09T15:30:55.223Z,6.93
2023-02-09T15:33:23.167Z,6.90
2023-02-09T15:35:50.218Z,7.50
2023-02-09T15:38:18.924Z,7.20
2023-02-09T15:40:48.697Z,7.40
2023-02-09T15:43:21.086Z,8.53
2023-02-09T15:45:48.132Z,9.30
2023-02-09T15:48:17.611Z,10.40
2023-02-09T15:50:47.239Z,8.70
2023-02-09T15:53:17.669Z,8.07
2023-02-09T15:55:45.802Z,8.10
2023-02-09T15:58:19.144Z,8.03
2023-02-09T16:00:47.807Z,7.60
2023-02-09T16:03:17.896Z,7.30
2023-02-09T16:05:51.108Z,7.53
2023-02-09T16:08:26.726Z,7.50
2023-02-09T16:10:54.503Z,7.20
2023-02-09T16:13:21.286Z,7.90
2023-02-09T16:15:48.612Z,8.37
2023-02-09T16:18:16.092Z,7.93
2023-02-09T16:20:45.817Z,8.57
2023-02-09T16:23:20.807Z,10.27
2023-02-09T16:25:51.075Z,9.27
2023-02-09T16:28:23.907Z,8.60
2023-02-09T16:31:10.532Z,8.43
2023-02-09T16:33:37.963Z,7.63
2023-02-09T16:36:13.748Z,7.80
2023-02-09T16:38:48.235Z,8.40
2023-02-09T16:41:39.747Z,8.33
2023-02-09T16:44:24.211Z,8.27
2023-02-09T16:46:54.798Z,8.57
2023-02-09T16:49:33.769Z,8.00
2023-02-09T16:52:17.513Z,8.33
2023-02-09T16:54:57.018Z,8.13
2023-02-09T16:57:25.712Z,8.40
2023-02-09T16:59:55.228Z,8.13
2023-02-09T17:02:43.780Z,8.67
2023-02-09T17:05:22.672Z,8.27
2023-02-09T17:08:06.350Z,9.00
2023-02-09T17:10:36.880Z,8.77
2023-02-09T17:13:08.345Z,8.90
2023-02-09T17:15:46.097Z,9.47
2023-02-09T17:18:52.890Z,9.03
2023-02-09T17:22:17.492Z,9.00
2023-02-09T17:25:04.691Z,8.90
2023-02-09T17:27:43.243Z,9.03
2023-02-09T17:30:19.236Z,9.67
2023-02-09T17:33:06.405Z,9.60
2023-02-09T17:36:17.698Z,9.07
2023-02-09T17:38:38.255Z,9.13
2023-02-09T17:41:10.038Z,9.03
2023-02-09T17:43:37.044Z,9.07
2023-02-09T17:46:03.938Z,8.70
2023-02-09T17:48:30.860Z,9.27
2023-02-09T17:50:58.385Z,9.33
2023-02-09T18:00:01.529Z,9.97
2023-02-09T18:02:31.249Z,11.93
2023-02-09T18:05:03.218Z,12.73
2023-02-09T18:07:30.669Z,11.00
2023-02-09T18:09:58.597Z,10.13
2023-02-09T18:12:27.052Z,9.57
2023-02-09T18:14:54.271Z,9.80
2023-02-09T18:17:21.193Z,9.80
2023-02-09T18:19:48.059Z,9.00
2023-02-09T18:22:17.010Z,9.20
2023-02-09T18:24:44.875Z,9.13
2023-02-09T18:27:16.523Z,9.73
2023-02-09T18:29:43.799Z,9.70
2023-02-09T18:32:16.575Z,9.00
2023-02-09T18:34:45.250Z,9.63
2023-02-09T18:37:14.895Z,9.23
2023-02-09T18:40:03.946Z,9.40
2023-02-09T18:42:33.038Z,9.50
2023-02-09T18:48:22.532Z,9.00
2023-02-09T18:50:49.370Z,10.00
2023-02-09T18:53:18.723Z,10.93
2023-02-09T18:55:51.556Z,10.20
2023-02-09T18:58:19.486Z,9.60
2023-02-09T19:00:46.643Z,9.30
2023-02-09T19:09:46.164Z,9.60
2023-02-09T19:15:42.173Z,9.17
2023-02-09T19:18:09.389Z,9.30
2023-02-09T19:20:53.300Z,9.37
2023-02-09T19:23:24.848Z,9.30
2023-02-09T19:26:06.350Z,9.90
2023-02-09T19:40:30.523Z,9.43
2023-02-09T19:42:57.616Z,10.00
2023-02-09T19:45:24.522Z,9.73
2023-02-09T19:47:51.511Z,9.87
2023-02-09T19:50:18.459Z,9.37
2023-02-09T19:52:46.762Z,10.00
2023-02-09T19:55:15.033Z,10.33
2023-02-09T19:57:42.679Z,9.90
2023-02-09T20:00:21.931Z,10.67
2023-02-09T20:02:49.091Z,10.07
2023-02-09T20:05:17.271Z,10.40
2023-02-09T20:07:44.103Z,10.17
2023-02-09T20:10:11.291Z,10.00
2023-02-09T20:12:38.746Z,10.53
2023-02-09T20:15:05.567Z,9.63
2023-02-09T20:17:32.400Z,9.90
2023-02-09T20:19:59.088Z,10.23
2023-02-09T20:22:25.782Z,10.57
2023-02-09T20:24:52.657Z,10.70
2023-02-09T20:27:19.531Z,9.70
2023-02-09T20:29:46.258Z,9.57
2023-02-09T20:32:12.944Z,10.83
2023-02-09T20:34:39.618Z,10.30
2023-02-09T20:37:06.464Z,11.00
2023-02-09T20:39:33.118Z,10.43
2023-02-09T20:42:01.124Z,10.93
2023-02-09T20:44:27.743Z,9.93
2023-02-09T20:46:54.422Z,11.27
2023-02-09T20:49:22.902Z,10.37
2023-02-09T20:51:49.589Z,11.07
2023-02-09T20:54:16.204Z,10.90
2023-02-09T20:56:43.770Z,11.00
2023-02-09T20:59:11.955Z,10.67
2023-02-09T21:01:39.318Z,11.37
2023-02-09T21:04:06.212Z,11.03
2023-02-09T21:06:33.621Z,10.90
2023-02-09T21:09:00.247Z,10.73
2023-02-09T21:11:27.129Z,10.77
2023-02-09T21:13:53.759Z,10.90
2023-02-09T21:16:20.494Z,11.37
2023-02-09T21:18:47.382Z,11.50
2023-02-09T21:21:16.311Z,11.27
2023-02-09T21:23:44.604Z,11.20
2023-02-09T21:26:15.178Z,11.27
2023-02-09T21:28:42.181Z,11.80
2023-02-09T21:31:14.350Z,11.70
2023-02-09T21:33:41.362Z,11.50
2023-02-09T21:36:08.532Z,11.30
2023-02-09T21:38:39.025Z,10.90
2023-02-09T21:41:10.957Z,11.30
2023-02-09T21:43:37.694Z,11.27
2023-02-09T21:46:04.448Z,11.00
2023-02-09T21:48:31.619Z,12.07
2023-02-09T21:50:58.756Z,11.17
2023-02-09T21:53:25.569Z,11.63
2023-02-09T21:55:52.210Z,11.97
2023-02-09T21:58:18.932Z,11.93
2023-02-09T22:00:46.041Z,12.23
2023-02-09T22:03:13.012Z,11.63
2023-02-09T22:05:39.625Z,11.73
2023-02-09T22:08:06.339Z,11.63
2023-02-09T22:10:33.084Z,11.57
2023-02-09T22:12:59.793Z,11.60
2023-02-09T22:15:26.416Z,13.07
2023-02-09T22:17:53.233Z,11.47
2023-02-09T22:20:19.973Z,11.93
2023-02-09T22:22:46.724Z,12.27
2023-02-09T22:25:13.639Z,12.67
2023-02-09T22:27:40.421Z,12.40
2023-02-09T22:30:07.580Z,12.00
2023-02-09T22:32:34.409Z,12.47
2023-02-09T22:35:01.049Z,12.87
2023-02-09T22:37:27.930Z,12.30
2023-02-09T22:39:54.608Z,13.03
2023-02-09T22:42:21.384Z,12.57
2023-02-09T22:44:48.224Z,11.70
2023-02-09T22:47:14.959Z,13.13
2023-02-09T22:49:41.619Z,12.60
2023-02-09T22:52:08.629Z,13.07
2023-02-09T22:54:35.460Z,13.83
2023-02-09T22:57:02.107Z,13.10
2023-02-09T22:59:28.770Z,13.03
2023-02-09T23:01:55.564Z,12.63
2023-02-09T23:04:22.234Z,12.53
2023-02-09T23:06:49.014Z,13.83
2023-02-09T23:09:15.673Z,13.13
2023-02-09T23:11:42.438Z,13.67
2023-02-09T23:14:11.117Z,13.60
2023-02-09T23:16:40.850Z,14.37
2023-02-09T23:19:10.743Z,14.63
2023-02-09T23:21:40.588Z,13.37
2023-02-09T23:24:08.491Z,13.67
2023-02-09T23:26:36.189Z,13.20
2023-02-09T23:29:06.929Z,13.13
2023-02-09T23:31:35.202Z,14.90
2023-02-09T23:34:02.189Z,15.33
2023-02-09T23:36:30.760Z,14.53
2023-02-09T23:39:02.186Z,13.47
2023-02-09T23:41:29.437Z,14.03
2023-02-09T23:43:56.519Z,14.20
2023-02-09T23:46:28.470Z,14.03
2023-02-09T23:48:56.539Z,13.53
2023-02-09T23:51:29.285Z,13.63
2023-02-09T23:53:58.044Z,13.67
2023-02-09T23:56:25.627Z,13.37
2023-02-09T23:58:54.034Z,13.80
